sensor_id;sensor_type;location;lat;lon;timestamp;P1;durP1;ratioP1;P2;durP2;ratioP2
14722;SDS011;7452;55.594;12.986;2022-12-07T00:01:40;10.73;;;7.13;;
14722;SDS011;7452;55.594;12.986;2022-12-07T00:04:10;9.23;;;7.23;;
14722;SDS011;7452;55.594;12.986;2022-12-07T00:06:40;11.77;;;7.47;;
14722;SDS011;7452;55.594;12.986;2022-12-07T00:09:10;10.53;;;7.30;;
14722;SDS011;7452;55.594;12.986;2022-12-07T00:11:38;10.00;;;6.97;;
14722;SDS011;7452;55.594;12.986;2022-12-07T00:14:07;10.50;;;7.73;;
14722;SDS011;7452;55.594;12.986;2022-12-07T00:16:37;11.10;;;7.73;;
14722;SDS011;7452;55.594;12.986;2022-12-07T00:19:06;10.57;;;7.80;;
14722;SDS011;7452;55.594;12.986;2022-12-07T00:21:36;9.23;;;6.93;;
14722;SDS011;7452;55.594;12.986;2022-12-07T00:24:04;10.37;;;7.30;;
14722;SDS011;7452;55.594;12.986;2022-12-07T00:26:33;10.97;;;8.10;;
14722;SDS011;7452;55.594;12.986;2022-12-07T00:29:01;12.13;;;7.97;;
14722;SDS011;7452;55.594;12.986;2022-12-07T00:31:31;10.57;;;7.70;;
14722;SDS011;7452;55.594;12.986;2022-12-07T00:34:02;10.37;;;7.87;;
14722;SDS011;7452;55.594;12.986;2022-12-07T00:36:29;13.37;;;8.40;;
14722;SDS011;7452;55.594;12.986;2022-12-07T00:38:57;12.93;;;8.33;;
14722;SDS011;7452;55.594;12.986;2022-12-07T00:41:28;11.37;;;8.07;;
14722;SDS011;7452;55.594;12.986;2022-12-07T00:43:56;8.83;;;6.80;;
14722;SDS011;7452;55.594;12.986;2022-12-07T00:46:24;10.07;;;6.27;;
14722;SDS011;7452;55.594;12.986;2022-12-07T00:48:53;8.47;;;6.63;;
14722;SDS011;7452;55.594;12.986;2022-12-07T00:51:29;9.30;;;6.90;;
14722;SDS011;7452;55.594;12.986;2022-12-07T00:53:59;9.20;;;7.00;;
14722;SDS011;7452;55.594;12.986;2022-12-07T00:56:27;9.53;;;7.30;;
14722;SDS011;7452;55.594;12.986;2022-12-07T00:58:56;9.50;;;7.50;;
14722;SDS011;7452;55.594;12.986;2022-12-07T01:01:26;11.50;;;7.83;;
14722;SDS011;7452;55.594;12.986;2022-12-07T01:03:54;12.73;;;7.67;;
14722;SDS011;7452;55.594;12.986;2022-12-07T01:06:22;12.23;;;7.77;;
14722;SDS011;7452;55.594;12.986;2022-12-07T01:08:52;10.00;;;7.00;;
14722;SDS011;7452;55.594;12.986;2022-12-07T01:11:20;9.80;;;7.13;;
14722;SDS011;7452;55.594;12.986;2022-12-07T01:13:50;10.27;;;7.57;;
14722;SDS011;7452;55.594;12.986;2022-12-07T01:16:18;12.13;;;6.63;;
14722;SDS011;7452;55.594;12.986;2022-12-07T01:18:47;8.73;;;7.07;;
14722;SDS011;7452;55.594;12.986;2022-12-07T01:21:16;10.33;;;7.63;;
14722;SDS011;7452;55.594;12.986;2022-12-07T01:23:45;12.20;;;7.57;;
14722;SDS011;7452;55.594;12.986;2022-12-07T01:26:20;10.70;;;7.27;;
14722;SDS011;7452;55.594;12.986;2022-12-07T01:28:49;9.97;;;6.77;;
14722;SDS011;7452;55.594;12.986;2022-12-07T01:31:20;8.90;;;6.57;;
14722;SDS011;7452;55.594;12.986;2022-12-07T01:33:49;7.97;;;6.37;;
14722;SDS011;7452;55.594;12.986;2022-12-07T01:36:19;8.73;;;6.43;;
14722;SDS011;7452;55.594;12.986;2022-12-07T01:38:48;9.77;;;6.57;;
14722;SDS011;7452;55.594;12.986;2022-12-07T01:41:19;12.47;;;6.97;;
14722;SDS011;7452;55.594;12.986;2022-12-07T01:46:46;10.33;;;6.33;;
14722;SDS011;7452;55.594;12.986;2022-12-07T01:49:17;10.50;;;6.03;;
14722;SDS011;7452;55.594;12.986;2022-12-07T01:51:49;7.87;;;5.30;;
14722;SDS011;7452;55.594;12.986;2022-12-07T01:54:18;8.13;;;5.50;;
14722;SDS011;7452;55.594;12.986;2022-12-07T01:56:51;10.17;;;5.50;;
14722;SDS011;7452;55.594;12.986;2022-12-07T01:59:19;8.60;;;5.37;;
14722;SDS011;7452;55.594;12.986;2022-12-07T02:01:50;8.20;;;3.70;;
14722;SDS011;7452;55.594;12.986;2022-12-07T02:04:18;5.00;;;3.37;;
14722;SDS011;7452;55.594;12.986;2022-12-07T02:06:46;7.47;;;4.53;;
14722;SDS011;7452;55.594;12.986;2022-12-07T02:09:13;5.67;;;3.63;;
14722;SDS011;7452;55.594;12.986;2022-12-07T02:11:41;5.97;;;3.97;;
14722;SDS011;7452;55.594;12.986;2022-12-07T02:14:12;7.90;;;4.20;;
14722;SDS011;7452;55.594;12.986;2022-12-07T02:16:43;6.23;;;3.90;;
14722;SDS011;7452;55.594;12.986;2022-12-07T02:19:27;6.60;;;4.13;;
14722;SDS011;7452;55.594;12.986;2022-12-07T02:22:20;6.10;;;4.10;;
14722;SDS011;7452;55.594;12.986;2022-12-07T02:25:07;6.73;;;3.77;;
14722;SDS011;7452;55.594;12.986;2022-12-07T02:27:43;5.67;;;3.57;;
14722;SDS011;7452;55.594;12.986;2022-12-07T02:30:15;6.87;;;3.83;;
14722;SDS011;7452;55.594;12.986;2022-12-07T02:32:54;6.63;;;4.03;;
14722;SDS011;7452;55.594;12.986;2022-12-07T02:35:32;6.80;;;3.93;;
14722;SDS011;7452;55.594;12.986;2022-12-07T02:38:02;7.20;;;4.90;;
14722;SDS011;7452;55.594;12.986;2022-12-07T02:40:38;6.43;;;4.60;;
14722;SDS011;7452;55.594;12.986;2022-12-07T02:43:08;5.90;;;4.60;;
14722;SDS011;7452;55.594;12.986;2022-12-07T02:45:40;6.87;;;4.30;;
14722;SDS011;7452;55.594;12.986;2022-12-07T02:48:10;7.33;;;4.40;;
14722;SDS011;7452;55.594;12.986;2022-12-07T02:50:43;6.70;;;4.80;;
14722;SDS011;7452;55.594;12.986;2022-12-07T02:53:30;6.53;;;4.63;;
14722;SDS011;7452;55.594;12.986;2022-12-07T02:56:03;8.93;;;4.57;;
14722;SDS011;7452;55.594;12.986;2022-12-07T02:58:37;8.07;;;4.33;;
14722;SDS011;7452;55.594;12.986;2022-12-07T03:01:18;6.30;;;3.40;;
14722;SDS011;7452;55.594;12.986;2022-12-07T03:03:53;7.13;;;3.60;;
14722;SDS011;7452;55.594;12.986;2022-12-07T03:06:31;6.70;;;3.97;;
14722;SDS011;7452;55.594;12.986;2022-12-07T03:09:06;7.13;;;3.87;;
14722;SDS011;7452;55.594;12.986;2022-12-07T03:11:44;6.90;;;3.60;;
14722;SDS011;7452;55.594;12.986;2022-12-07T03:14:15;7.67;;;4.23;;
14722;SDS011;7452;55.594;12.986;2022-12-07T03:16:47;8.83;;;3.77;;
14722;SDS011;7452;55.594;12.986;2022-12-07T03:19:22;4.77;;;3.43;;
14722;SDS011;7452;55.594;12.986;2022-12-07T03:21:53;8.13;;;3.67;;
14722;SDS011;7452;55.594;12.986;2022-12-07T03:24:24;6.60;;;3.50;;
14722;SDS011;7452;55.594;12.986;2022-12-07T03:26:55;9.30;;;3.80;;
14722;SDS011;7452;55.594;12.986;2022-12-07T03:29:30;9.60;;;3.70;;
14722;SDS011;7452;55.594;12.986;2022-12-07T03:32:03;9.20;;;3.70;;
14722;SDS011;7452;55.594;12.986;2022-12-07T03:34:36;5.13;;;3.13;;
14722;SDS011;7452;55.594;12.986;2022-12-07T03:37:12;6.20;;;3.47;;
14722;SDS011;7452;55.594;12.986;2022-12-07T03:39:46;6.37;;;2.97;;
14722;SDS011;7452;55.594;12.986;2022-12-07T03:42:19;5.07;;;3.37;;
14722;SDS011;7452;55.594;12.986;2022-12-07T03:44:47;6.97;;;4.10;;
14722;SDS011;7452;55.594;12.986;2022-12-07T03:47:20;7.30;;;3.83;;
14722;SDS011;7452;55.594;12.986;2022-12-07T03:49:58;12.67;;;4.97;;
14722;SDS011;7452;55.594;12.986;2022-12-07T03:52:30;8.83;;;4.37;;
14722;SDS011;7452;55.594;12.986;2022-12-07T03:55:04;9.07;;;4.47;;
14722;SDS011;7452;55.594;12.986;2022-12-07T03:57:36;7.13;;;4.57;;
14722;SDS011;7452;55.594;12.986;2022-12-07T04:00:07;6.63;;;4.03;;
14722;SDS011;7452;55.594;12.986;2022-12-07T04:02:38;6.50;;;3.97;;
14722;SDS011;7452;55.594;12.986;2022-12-07T04:05:07;7.37;;;4.70;;
14722;SDS011;7452;55.594;12.986;2022-12-07T04:07:34;6.17;;;4.30;;
14722;SDS011;7452;55.594;12.986;2022-12-07T04:10:02;6.57;;;4.83;;
14722;SDS011;7452;55.594;12.986;2022-12-07T04:12:32;8.53;;;5.23;;
14722;SDS011;7452;55.594;12.986;2022-12-07T04:15:00;6.77;;;5.07;;
14722;SDS011;7452;55.594;12.986;2022-12-07T04:17:29;7.70;;;5.37;;
14722;SDS011;7452;55.594;12.986;2022-12-07T04:19:59;9.97;;;5.63;;
14722;SDS011;7452;55.594;12.986;2022-12-07T04:22:27;10.50;;;5.70;;
14722;SDS011;7452;55.594;12.986;2022-12-07T04:24:55;7.73;;;5.80;;
14722;SDS011;7452;55.594;12.986;2022-12-07T04:27:23;9.00;;;5.70;;
14722;SDS011;7452;55.594;12.986;2022-12-07T04:29:52;11.53;;;5.83;;
14722;SDS011;7452;55.594;12.986;2022-12-07T04:32:20;9.60;;;6.43;;
14722;SDS011;7452;55.594;12.986;2022-12-07T04:34:48;10.07;;;5.70;;
14722;SDS011;7452;55.594;12.986;2022-12-07T04:37:17;10.17;;;6.40;;
14722;SDS011;7452;55.594;12.986;2022-12-07T04:39:44;10.50;;;6.00;;
14722;SDS011;7452;55.594;12.986;2022-12-07T04:42:11;9.40;;;6.33;;
14722;SDS011;7452;55.594;12.986;2022-12-07T04:44:39;9.53;;;6.20;;
14722;SDS011;7452;55.594;12.986;2022-12-07T04:47:09;8.10;;;6.10;;
14722;SDS011;7452;55.594;12.986;2022-12-07T04:49:36;9.33;;;6.17;;
14722;SDS011;7452;55.594;12.986;2022-12-07T04:52:04;8.47;;;6.53;;
14722;SDS011;7452;55.594;12.986;2022-12-07T04:54:33;9.80;;;6.60;;
14722;SDS011;7452;55.594;12.986;2022-12-07T04:57:00;10.57;;;6.37;;
14722;SDS011;7452;55.594;12.986;2022-12-07T04:59:27;9.83;;;6.37;;
14722;SDS011;7452;55.594;12.986;2022-12-07T05:01:55;9.73;;;7.00;;
14722;SDS011;7452;55.594;12.986;2022-12-07T05:04:22;10.37;;;7.10;;
14722;SDS011;7452;55.594;12.986;2022-12-07T05:06:50;11.00;;;7.07;;
14722;SDS011;7452;55.594;12.986;2022-12-07T05:09:18;11.50;;;7.53;;
14722;SDS011;7452;55.594;12.986;2022-12-07T05:11:46;11.07;;;7.90;;
14722;SDS011;7452;55.594;12.986;2022-12-07T05:14:15;9.93;;;7.17;;
14722;SDS011;7452;55.594;12.986;2022-12-07T05:16:44;14.47;;;8.47;;
14722;SDS011;7452;55.594;12.986;2022-12-07T05:19:12;12.53;;;7.90;;
14722;SDS011;7452;55.594;12.986;2022-12-07T05:21:40;13.10;;;7.90;;
14722;SDS011;7452;55.594;12.986;2022-12-07T05:24:09;14.27;;;8.20;;
14722;SDS011;7452;55.594;12.986;2022-12-07T05:26:37;14.57;;;7.97;;
14722;SDS011;7452;55.594;12.986;2022-12-07T05:29:10;10.73;;;7.50;;
14722;SDS011;7452;55.594;12.986;2022-12-07T05:31:39;12.57;;;8.23;;
14722;SDS011;7452;55.594;12.986;2022-12-07T05:34:07;12.40;;;7.53;;
14722;SDS011;7452;55.594;12.986;2022-12-07T05:36:34;12.93;;;8.07;;
14722;SDS011;7452;55.594;12.986;2022-12-07T05:39:01;13.73;;;8.00;;
14722;SDS011;7452;55.594;12.986;2022-12-07T05:41:29;13.00;;;7.83;;
14722;SDS011;7452;55.594;12.986;2022-12-07T05:44:14;12.70;;;8.30;;
14722;SDS011;7452;55.594;12.986;2022-12-07T05:46:42;12.00;;;8.07;;
14722;SDS011;7452;55.594;12.986;2022-12-07T05:49:09;14.90;;;8.80;;
14722;SDS011;7452;55.594;12.986;2022-12-07T05:51:36;13.50;;;8.40;;
14722;SDS011;7452;55.594;12.986;2022-12-07T05:54:03;14.23;;;8.57;;
14722;SDS011;7452;55.594;12.986;2022-12-07T05:56:31;15.10;;;9.47;;
14722;SDS011;7452;55.594;12.986;2022-12-07T05:59:00;13.57;;;8.90;;
14722;SDS011;7452;55.594;12.986;2022-12-07T06:01:46;17.80;;;9.40;;
14722;SDS011;7452;55.594;12.986;2022-12-07T06:04:14;13.43;;;9.30;;
14722;SDS011;7452;55.594;12.986;2022-12-07T06:06:42;16.27;;;10.13;;
14722;SDS011;7452;55.594;12.986;2022-12-07T06:09:10;16.63;;;9.50;;
14722;SDS011;7452;55.594;12.986;2022-12-07T06:11:38;17.70;;;9.77;;
14722;SDS011;7452;55.594;12.986;2022-12-07T06:14:22;15.87;;;10.37;;
14722;SDS011;7452;55.594;12.986;2022-12-07T06:16:51;15.10;;;10.63;;
14722;SDS011;7452;55.594;12.986;2022-12-07T06:19:19;17.00;;;10.63;;
14722;SDS011;7452;55.594;12.986;2022-12-07T06:21:48;13.93;;;10.33;;
14722;SDS011;7452;55.594;12.986;2022-12-07T06:24:15;14.23;;;10.23;;
14722;SDS011;7452;55.594;12.986;2022-12-07T06:26:44;14.87;;;10.03;;
14722;SDS011;7452;55.594;12.986;2022-12-07T06:29:12;13.10;;;8.80;;
14722;SDS011;7452;55.594;12.986;2022-12-07T06:31:40;15.13;;;9.43;;
14722;SDS011;7452;55.594;12.986;2022-12-07T06:34:13;14.90;;;9.03;;
14722;SDS011;7452;55.594;12.986;2022-12-07T06:36:41;13.47;;;8.87;;
14722;SDS011;7452;55.594;12.986;2022-12-07T06:39:09;16.60;;;9.13;;
14722;SDS011;7452;55.594;12.986;2022-12-07T06:41:38;14.07;;;9.00;;
14722;SDS011;7452;55.594;12.986;2022-12-07T06:44:06;14.83;;;8.67;;
14722;SDS011;7452;55.594;12.986;2022-12-07T06:46:33;16.60;;;9.33;;
14722;SDS011;7452;55.594;12.986;2022-12-07T06:49:01;15.73;;;8.50;;
14722;SDS011;7452;55.594;12.986;2022-12-07T06:51:30;14.93;;;8.80;;
14722;SDS011;7452;55.594;12.986;2022-12-07T06:53:57;16.23;;;9.20;;
14722;SDS011;7452;55.594;12.986;2022-12-07T06:56:24;13.17;;;8.87;;
14722;SDS011;7452;55.594;12.986;2022-12-07T06:58:53;17.00;;;8.60;;
14722;SDS011;7452;55.594;12.986;2022-12-07T07:01:21;15.87;;;9.47;;
14722;SDS011;7452;55.594;12.986;2022-12-07T07:03:48;13.60;;;9.07;;
14722;SDS011;7452;55.594;12.986;2022-12-07T07:06:14;12.97;;;8.97;;
14722;SDS011;7452;55.594;12.986;2022-12-07T07:08:44;13.00;;;8.90;;
14722;SDS011;7452;55.594;12.986;2022-12-07T07:11:12;16.63;;;8.80;;
14722;SDS011;7452;55.594;12.986;2022-12-07T07:13:45;14.67;;;8.93;;
14722;SDS011;7452;55.594;12.986;2022-12-07T07:16:12;15.77;;;8.70;;
14722;SDS011;7452;55.594;12.986;2022-12-07T07:18:40;13.53;;;8.33;;
14722;SDS011;7452;55.594;12.986;2022-12-07T07:21:07;14.60;;;9.07;;
14722;SDS011;7452;55.594;12.986;2022-12-07T07:23:35;20.13;;;10.00;;
14722;SDS011;7452;55.594;12.986;2022-12-07T07:26:04;21.77;;;11.37;;
14722;SDS011;7452;55.594;12.986;2022-12-07T07:28:31;17.50;;;9.40;;
14722;SDS011;7452;55.594;12.986;2022-12-07T07:31:01;15.00;;;9.60;;
14722;SDS011;7452;55.594;12.986;2022-12-07T07:33:28;14.73;;;9.87;;
14722;SDS011;7452;55.594;12.986;2022-12-07T07:35:55;16.03;;;10.03;;
14722;SDS011;7452;55.594;12.986;2022-12-07T07:38:22;14.43;;;10.33;;
14722;SDS011;7452;55.594;12.986;2022-12-07T07:40:49;14.70;;;11.17;;
14722;SDS011;7452;55.594;12.986;2022-12-07T07:43:19;16.40;;;11.07;;
14722;SDS011;7452;55.594;12.986;2022-12-07T07:45:46;16.07;;;11.53;;
14722;SDS011;7452;55.594;12.986;2022-12-07T07:48:13;15.77;;;10.00;;
14722;SDS011;7452;55.594;12.986;2022-12-07T07:50:42;15.03;;;8.73;;
14722;SDS011;7452;55.594;12.986;2022-12-07T07:53:09;12.87;;;8.40;;
14722;SDS011;7452;55.594;12.986;2022-12-07T07:55:36;11.87;;;8.10;;
14722;SDS011;7452;55.594;12.986;2022-12-07T07:58:03;12.37;;;8.80;;
14722;SDS011;7452;55.594;12.986;2022-12-07T08:00:33;13.53;;;8.63;;
14722;SDS011;7452;55.594;12.986;2022-12-07T08:03:00;13.47;;;8.33;;
14722;SDS011;7452;55.594;12.986;2022-12-07T08:05:28;11.77;;;8.60;;
14722;SDS011;7452;55.594;12.986;2022-12-07T08:07:55;12.27;;;8.70;;
14722;SDS011;7452;55.594;12.986;2022-12-07T08:10:24;13.13;;;8.40;;
14722;SDS011;7452;55.594;12.986;2022-12-07T08:12:51;13.63;;;8.53;;
14722;SDS011;7452;55.594;12.986;2022-12-07T08:15:40;15.13;;;8.50;;
14722;SDS011;7452;55.594;12.986;2022-12-07T08:18:08;12.43;;;8.00;;
14722;SDS011;7452;55.594;12.986;2022-12-07T08:20:39;12.23;;;8.47;;
14722;SDS011;7452;55.594;12.986;2022-12-07T08:23:09;16.30;;;8.20;;
14722;SDS011;7452;55.594;12.986;2022-12-07T08:25:38;13.13;;;9.00;;
14722;SDS011;7452;55.594;12.986;2022-12-07T08:28:05;15.00;;;9.30;;
14722;SDS011;7452;55.594;12.986;2022-12-07T08:30:33;15.27;;;9.83;;
14722;SDS011;7452;55.594;12.986;2022-12-07T08:33:02;15.43;;;9.87;;
14722;SDS011;7452;55.594;12.986;2022-12-07T08:35:29;14.57;;;9.60;;
14722;SDS011;7452;55.594;12.986;2022-12-07T08:37:58;13.43;;;9.80;;
14722;SDS011;7452;55.594;12.986;2022-12-07T08:40:27;15.37;;;10.40;;
14722;SDS011;7452;55.594;12.986;2022-12-07T08:42:56;15.80;;;10.23;;
14722;SDS011;7452;55.594;12.986;2022-12-07T08:45:23;15.93;;;10.03;;
14722;SDS011;7452;55.594;12.986;2022-12-07T08:47:53;18.60;;;9.87;;
14722;SDS011;7452;55.594;12.986;2022-12-07T08:50:25;16.70;;;10.60;;
14722;SDS011;7452;55.594;12.986;2022-12-07T08:52:52;15.50;;;10.40;;
14722;SDS011;7452;55.594;12.986;2022-12-07T08:55:21;17.07;;;10.57;;
14722;SDS011;7452;55.594;12.986;2022-12-07T08:57:49;16.27;;;9.97;;
14722;SDS011;7452;55.594;12.986;2022-12-07T09:00:20;14.63;;;10.43;;
14722;SDS011;7452;55.594;12.986;2022-12-07T09:02:47;13.77;;;10.07;;
14722;SDS011;7452;55.594;12.986;2022-12-07T09:05:17;16.03;;;10.43;;
14722;SDS011;7452;55.594;12.986;2022-12-07T09:07:47;16.47;;;10.03;;
14722;SDS011;7452;55.594;12.986;2022-12-07T09:10:19;15.83;;;9.13;;
14722;SDS011;7452;55.594;12.986;2022-12-07T09:12:46;14.87;;;9.07;;
14722;SDS011;7452;55.594;12.986;2022-12-07T09:15:13;12.47;;;9.17;;
14722;SDS011;7452;55.594;12.986;2022-12-07T09:17:42;12.67;;;8.63;;
14722;SDS011;7452;55.594;12.986;2022-12-07T09:20:11;14.60;;;8.90;;
14722;SDS011;7452;55.594;12.986;2022-12-07T09:22:39;11.90;;;8.50;;
14722;SDS011;7452;55.594;12.986;2022-12-07T09:25:10;13.47;;;9.53;;
14722;SDS011;7452;55.594;12.986;2022-12-07T09:27:37;15.63;;;8.37;;
14722;SDS011;7452;55.594;12.986;2022-12-07T09:30:05;11.90;;;8.03;;
14722;SDS011;7452;55.594;12.986;2022-12-07T09:32:32;11.40;;;7.80;;
14722;SDS011;7452;55.594;12.986;2022-12-07T09:35:04;12.17;;;8.13;;
14722;SDS011;7452;55.594;12.986;2022-12-07T09:37:32;11.27;;;8.13;;
14722;SDS011;7452;55.594;12.986;2022-12-07T09:40:01;10.60;;;7.77;;
14722;SDS011;7452;55.594;12.986;2022-12-07T09:42:32;11.10;;;7.63;;
14722;SDS011;7452;55.594;12.986;2022-12-07T09:45:01;11.90;;;7.40;;
14722;SDS011;7452;55.594;12.986;2022-12-07T09:47:30;10.03;;;7.47;;
14722;SDS011;7452;55.594;12.986;2022-12-07T09:50:00;10.67;;;7.80;;
14722;SDS011;7452;55.594;12.986;2022-12-07T09:52:30;12.27;;;8.50;;
14722;SDS011;7452;55.594;12.986;2022-12-07T09:54:58;10.63;;;7.60;;
14722;SDS011;7452;55.594;12.986;2022-12-07T09:57:32;10.17;;;7.13;;
14722;SDS011;7452;55.594;12.986;2022-12-07T10:00:03;8.87;;;6.67;;
14722;SDS011;7452;55.594;12.986;2022-12-07T10:02:37;9.83;;;7.80;;
14722;SDS011;7452;55.594;12.986;2022-12-07T10:05:07;10.07;;;6.57;;
14722;SDS011;7452;55.594;12.986;2022-12-07T10:07:41;10.63;;;6.90;;
14722;SDS011;7452;55.594;12.986;2022-12-07T10:10:13;12.20;;;6.90;;
14722;SDS011;7452;55.594;12.986;2022-12-07T10:13:00;10.60;;;7.13;;
14722;SDS011;7452;55.594;12.986;2022-12-07T10:15:40;11.23;;;6.87;;
14722;SDS011;7452;55.594;12.986;2022-12-07T10:18:26;9.10;;;6.40;;
14722;SDS011;7452;55.594;12.986;2022-12-07T10:21:12;9.03;;;6.27;;
14722;SDS011;7452;55.594;12.986;2022-12-07T10:23:41;8.20;;;5.97;;
14722;SDS011;7452;55.594;12.986;2022-12-07T10:26:29;7.60;;;5.50;;
14722;SDS011;7452;55.594;12.986;2022-12-07T10:29:00;8.17;;;5.20;;
14722;SDS011;7452;55.594;12.986;2022-12-07T10:31:30;7.73;;;5.67;;
14722;SDS011;7452;55.594;12.986;2022-12-07T10:33:58;7.70;;;6.10;;
14722;SDS011;7452;55.594;12.986;2022-12-07T10:36:29;6.50;;;5.40;;
14722;SDS011;7452;55.594;12.986;2022-12-07T10:39:03;10.13;;;5.43;;
14722;SDS011;7452;55.594;12.986;2022-12-07T10:41:42;10.23;;;5.93;;
14722;SDS011;7452;55.594;12.986;2022-12-07T10:44:25;8.57;;;5.90;;
14722;SDS011;7452;55.594;12.986;2022-12-07T10:47:01;9.43;;;5.30;;
14722;SDS011;7452;55.594;12.986;2022-12-07T10:49:59;7.53;;;5.47;;
14722;SDS011;7452;55.594;12.986;2022-12-07T10:52:38;9.90;;;6.03;;
14722;SDS011;7452;55.594;12.986;2022-12-07T10:55:16;10.93;;;6.00;;
14722;SDS011;7452;55.594;12.986;2022-12-07T10:57:51;7.87;;;5.43;;
14722;SDS011;7452;55.594;12.986;2022-12-07T11:00:46;10.63;;;5.77;;
14722;SDS011;7452;55.594;12.986;2022-12-07T11:03:23;12.67;;;5.63;;
14722;SDS011;7452;55.594;12.986;2022-12-07T11:06:02;9.30;;;5.60;;
14722;SDS011;7452;55.594;12.986;2022-12-07T11:08:44;9.07;;;5.80;;
14722;SDS011;7452;55.594;12.986;2022-12-07T11:11:23;7.07;;;5.30;;
14722;SDS011;7452;55.594;12.986;2022-12-07T11:13:57;9.40;;;5.50;;
14722;SDS011;7452;55.594;12.986;2022-12-07T11:19:26;8.00;;;5.70;;
14722;SDS011;7452;55.594;12.986;2022-12-07T11:22:18;9.93;;;6.17;;
14722;SDS011;7452;55.594;12.986;2022-12-07T11:24:56;11.17;;;5.60;;
14722;SDS011;7452;55.594;12.986;2022-12-07T11:27:31;8.93;;;6.07;;
14722;SDS011;7452;55.594;12.986;2022-12-07T11:30:06;6.40;;;4.80;;
14722;SDS011;7452;55.594;12.986;2022-12-07T11:35:38;10.20;;;6.60;;
14722;SDS011;7452;55.594;12.986;2022-12-07T11:38:24;9.67;;;6.23;;
14722;SDS011;7452;55.594;12.986;2022-12-07T11:40:58;11.33;;;6.80;;
14722;SDS011;7452;55.594;12.986;2022-12-07T11:43:37;10.83;;;6.20;;
14722;SDS011;7452;55.594;12.986;2022-12-07T11:46:17;8.90;;;6.33;;
14722;SDS011;7452;55.594;12.986;2022-12-07T11:48:51;10.97;;;5.83;;
14722;SDS011;7452;55.594;12.986;2022-12-07T11:51:25;8.97;;;5.40;;
14722;SDS011;7452;55.594;12.986;2022-12-07T11:53:53;10.37;;;5.23;;
14722;SDS011;7452;55.594;12.986;2022-12-07T11:56:24;6.90;;;5.00;;
14722;SDS011;7452;55.594;12.986;2022-12-07T11:58:55;8.77;;;5.17;;
14722;SDS011;7452;55.594;12.986;2022-12-07T12:01:28;11.97;;;4.80;;
14722;SDS011;7452;55.594;12.986;2022-12-07T12:04:13;7.60;;;5.10;;
14722;SDS011;7452;55.594;12.986;2022-12-07T12:06:55;12.67;;;5.27;;
14722;SDS011;7452;55.594;12.986;2022-12-07T12:09:23;7.83;;;5.37;;
14722;SDS011;7452;55.594;12.986;2022-12-07T12:14:58;7.73;;;6.00;;
14722;SDS011;7452;55.594;12.986;2022-12-07T12:17:45;10.60;;;5.63;;
14722;SDS011;7452;55.594;12.986;2022-12-07T12:20:29;12.60;;;5.73;;
14722;SDS011;7452;55.594;12.986;2022-12-07T12:23:05;8.47;;;6.73;;
14722;SDS011;7452;55.594;12.986;2022-12-07T12:25:37;13.30;;;7.10;;
14722;SDS011;7452;55.594;12.986;2022-12-07T12:28:17;10.83;;;6.30;;
14722;SDS011;7452;55.594;12.986;2022-12-07T12:31:03;11.53;;;6.63;;
14722;SDS011;7452;55.594;12.986;2022-12-07T12:33:32;11.60;;;7.20;;
14722;SDS011;7452;55.594;12.986;2022-12-07T12:39:10;15.87;;;8.93;;
14722;SDS011;7452;55.594;12.986;2022-12-07T12:41:55;14.57;;;9.43;;
14722;SDS011;7452;55.594;12.986;2022-12-07T12:47:39;15.93;;;9.53;;
14722;SDS011;7452;55.594;12.986;2022-12-07T12:50:12;12.40;;;9.07;;
14722;SDS011;7452;55.594;12.986;2022-12-07T12:52:51;13.30;;;9.30;;
14722;SDS011;7452;55.594;12.986;2022-12-07T13:01:56;11.57;;;6.57;;
14722;SDS011;7452;55.594;12.986;2022-12-07T13:04:38;10.10;;;6.37;;
14722;SDS011;7452;55.594;12.986;2022-12-07T13:10:38;8.60;;;5.73;;
14722;SDS011;7452;55.594;12.986;2022-12-07T13:25:05;8.57;;;5.67;;
14722;SDS011;7452;55.594;12.986;2022-12-07T13:27:37;10.97;;;6.03;;
14722;SDS011;7452;55.594;12.986;2022-12-07T13:30:14;9.07;;;5.50;;
14722;SDS011;7452;55.594;12.986;2022-12-07T13:32:50;9.17;;;5.63;;
14722;SDS011;7452;55.594;12.986;2022-12-07T13:35:29;9.23;;;5.60;;
14722;SDS011;7452;55.594;12.986;2022-12-07T13:37:59;7.70;;;5.30;;
14722;SDS011;7452;55.594;12.986;2022-12-07T13:40:30;8.33;;;5.60;;
14722;SDS011;7452;55.594;12.986;2022-12-07T13:43:04;10.33;;;6.53;;
14722;SDS011;7452;55.594;12.986;2022-12-07T13:45:39;7.17;;;5.13;;
14722;SDS011;7452;55.594;12.986;2022-12-07T13:48:19;9.77;;;5.43;;
14722;SDS011;7452;55.594;12.986;2022-12-07T13:50:54;12.67;;;5.07;;
14722;SDS011;7452;55.594;12.986;2022-12-07T13:53:24;6.63;;;4.60;;
14722;SDS011;7452;55.594;12.986;2022-12-07T13:55:55;5.57;;;4.23;;
14722;SDS011;7452;55.594;12.986;2022-12-07T13:58:24;6.70;;;4.53;;
14722;SDS011;7452;55.594;12.986;2022-12-07T14:00:52;6.67;;;4.93;;
14722;SDS011;7452;55.594;12.986;2022-12-07T14:03:27;6.40;;;4.37;;
14722;SDS011;7452;55.594;12.986;2022-12-07T14:06:03;7.80;;;4.60;;
14722;SDS011;7452;55.594;12.986;2022-12-07T14:08:35;8.20;;;4.43;;
14722;SDS011;7452;55.594;12.986;2022-12-07T14:11:02;8.03;;;4.70;;
14722;SDS011;7452;55.594;12.986;2022-12-07T14:13:32;5.97;;;3.83;;
14722;SDS011;7452;55.594;12.986;2022-12-07T14:16:00;5.30;;;3.93;;
14722;SDS011;7452;55.594;12.986;2022-12-07T14:18:36;5.87;;;4.13;;
14722;SDS011;7452;55.594;12.986;2022-12-07T14:21:04;6.53;;;4.30;;
14722;SDS011;7452;55.594;12.986;2022-12-07T14:23:32;5.83;;;4.53;;
14722;SDS011;7452;55.594;12.986;2022-12-07T14:26:05;6.47;;;4.07;;
14722;SDS011;7452;55.594;12.986;2022-12-07T14:28:36;6.10;;;4.43;;
14722;SDS011;7452;55.594;12.986;2022-12-07T14:31:07;5.23;;;4.23;;
14722;SDS011;7452;55.594;12.986;2022-12-07T14:33:38;5.10;;;4.47;;
14722;SDS011;7452;55.594;12.986;2022-12-07T14:36:05;5.50;;;4.73;;
14722;SDS011;7452;55.594;12.986;2022-12-07T14:38:35;5.17;;;4.50;;
14722;SDS011;7452;55.594;12.986;2022-12-07T14:41:02;5.23;;;4.07;;
14722;SDS011;7452;55.594;12.986;2022-12-07T14:43:52;5.07;;;4.30;;
14722;SDS011;7452;55.594;12.986;2022-12-07T14:46:19;4.23;;;3.67;;
14722;SDS011;7452;55.594;12.986;2022-12-07T14:48:47;5.37;;;3.47;;
14722;SDS011;7452;55.594;12.986;2022-12-07T14:51:14;3.77;;;3.33;;
14722;SDS011;7452;55.594;12.986;2022-12-07T14:53:42;4.57;;;2.93;;
14722;SDS011;7452;55.594;12.986;2022-12-07T14:56:12;3.67;;;3.00;;
14722;SDS011;7452;55.594;12.986;2022-12-07T14:58:40;4.43;;;2.60;;
14722;SDS011;7452;55.594;12.986;2022-12-07T15:01:10;3.20;;;2.50;;
14722;SDS011;7452;55.594;12.986;2022-12-07T15:03:39;5.03;;;2.50;;
14722;SDS011;7452;55.594;12.986;2022-12-07T15:06:07;2.00;;;1.90;;
14722;SDS011;7452;55.594;12.986;2022-12-07T15:08:39;3.50;;;2.83;;
14722;SDS011;7452;55.594;12.986;2022-12-07T15:11:10;3.47;;;2.67;;
14722;SDS011;7452;55.594;12.986;2022-12-07T15:13:39;2.80;;;2.40;;
14722;SDS011;7452;55.594;12.986;2022-12-07T15:16:25;2.93;;;1.90;;
14722;SDS011;7452;55.594;12.986;2022-12-07T15:18:53;3.33;;;2.17;;
14722;SDS011;7452;55.594;12.986;2022-12-07T15:21:20;2.23;;;1.97;;
14722;SDS011;7452;55.594;12.986;2022-12-07T15:23:51;2.00;;;1.80;;
14722;SDS011;7452;55.594;12.986;2022-12-07T15:26:19;2.47;;;1.80;;
14722;SDS011;7452;55.594;12.986;2022-12-07T15:28:48;2.30;;;2.10;;
14722;SDS011;7452;55.594;12.986;2022-12-07T15:31:16;3.93;;;2.70;;
14722;SDS011;7452;55.594;12.986;2022-12-07T15:33:46;2.57;;;2.13;;
14722;SDS011;7452;55.594;12.986;2022-12-07T15:36:21;3.00;;;2.20;;
14722;SDS011;7452;55.594;12.986;2022-12-07T15:38:50;3.47;;;2.40;;
14722;SDS011;7452;55.594;12.986;2022-12-07T15:41:18;3.20;;;2.20;;
14722;SDS011;7452;55.594;12.986;2022-12-07T15:43:45;3.17;;;2.50;;
14722;SDS011;7452;55.594;12.986;2022-12-07T15:46:29;3.70;;;2.30;;